Cleveland, Ohio
Traffic Map
Current Weather Conditions
Cleveland, Ohio
Scattered Clouds
Scattered Clouds
78°
Feels Like: 80°
Wind Chill: 78° Ceiling: Unl
Heat Index: 80° Visibility: 10mi
Dew Point: 70° Wind: 0mph
Humidity: 76% Direction: ° ()
Pressure: 30.02in Gusts: 0mph
Raw Report DataKBKL 302353Z 00000KT 10SM SCT090 26/21 A3002 RMK AO2 SLP161 T02560211 10278 20244 55001
Traffic Incident Summary
Active as of:
Severity:
Category:
InformationThere was an issue retrieving the traffic information for this location. Please try a different location or try again shortly.
Advertisements
Track Severe Weather on mobile